sensor_id;sensor_type;location;lat;lon;timestamp;pressure;altitude;pressure_sealevel;temperature;humidity
60646;BME280;46462;32.608;-117.032;2023-05-24T00:02:19;99281.59;;;23.44;50.37
60646;BME280;46462;32.608;-117.032;2023-05-24T00:04:49;99276.92;;;23.39;50.43
60646;BME280;46462;32.608;-117.032;2023-05-24T00:07:20;99272.57;;;23.15;51.05
60646;BME280;46462;32.608;-117.032;2023-05-24T00:09:51;99273.63;;;23.30;50.69
60646;BME280;46462;32.608;-117.032;2023-05-24T00:12:22;99271.67;;;23.37;50.46
60646;BME280;46462;32.608;-117.032;2023-05-24T00:14:52;99270.30;;;23.36;50.40
60646;BME280;46462;32.608;-117.032;2023-05-24T00:17:23;99270.70;;;23.35;50.41
60646;BME280;46462;32.608;-117.032;2023-05-24T00:19:54;99275.50;;;23.37;50.34
60646;BME280;46462;32.608;-117.032;2023-05-24T00:22:24;99271.74;;;23.35;50.36
60646;BME280;46462;32.608;-117.032;2023-05-24T00:24:55;99268.54;;;23.36;50.33
60646;BME280;46462;32.608;-117.032;2023-05-24T00:27:26;99266.19;;;23.36;50.29
60646;BME280;46462;32.608;-117.032;2023-05-24T00:29:57;99267.31;;;23.33;50.36
60646;BME280;46462;32.608;-117.032;2023-05-24T00:32:27;99267.28;;;23.30;50.47
60646;BME280;46462;32.608;-117.032;2023-05-24T00:34:58;99264.84;;;23.33;50.35
60646;BME280;46462;32.608;-117.032;2023-05-24T00:37:29;99259.53;;;23.34;50.24
60646;BME280;46462;32.608;-117.032;2023-05-24T00:39:59;99257.71;;;23.25;50.44
60646;BME280;46462;32.608;-117.032;2023-05-24T00:42:30;99251.74;;;23.16;50.72
60646;BME280;46462;32.608;-117.032;2023-05-24T00:45:01;99252.08;;;23.13;50.81
60646;BME280;46462;32.608;-117.032;2023-05-24T00:47:32;99250.21;;;23.14;50.73
60646;BME280;46462;32.608;-117.032;2023-05-24T00:50:08;99248.45;;;23.10;50.83
60646;BME280;46462;32.608;-117.032;2023-05-24T00:52:38;99246.97;;;23.06;50.94
60646;BME280;46462;32.608;-117.032;2023-05-24T00:55:09;99243.19;;;23.14;50.69
60646;BME280;46462;32.608;-117.032;2023-05-24T00:57:38;99239.35;;;23.18;50.49
60646;BME280;46462;32.608;-117.032;2023-05-24T01:00:10;99238.55;;;23.19;50.50
60646;BME280;46462;32.608;-117.032;2023-05-24T01:02:39;99235.26;;;23.08;50.59
60646;BME280;46462;32.608;-117.032;2023-05-24T01:05:09;99238.82;;;23.15;50.56
60646;BME280;46462;32.608;-117.032;2023-05-24T01:07:47;99237.81;;;23.24;50.31
60646;BME280;46462;32.608;-117.032;2023-05-24T01:10:15;99236.89;;;23.14;50.53
60646;BME280;46462;32.608;-117.032;2023-05-24T01:12:50;99234.39;;;23.28;50.20
60646;BME280;46462;32.608;-117.032;2023-05-24T01:15:19;99230.97;;;23.39;49.91
60646;BME280;46462;32.608;-117.032;2023-05-24T01:17:50;99228.06;;;23.35;49.94
60646;BME280;46462;32.608;-117.032;2023-05-24T01:20:14;99226.44;;;23.27;50.17
60646;BME280;46462;32.608;-117.032;2023-05-24T01:25:26;99224.47;;;23.36;49.98
60646;BME280;46462;32.608;-117.032;2023-05-24T01:27:47;99221.35;;;23.42;49.81
60646;BME280;46462;32.608;-117.032;2023-05-24T01:30:17;99219.32;;;23.41;49.85
60646;BME280;46462;32.608;-117.032;2023-05-24T01:32:47;99218.13;;;23.43;49.75
60646;BME280;46462;32.608;-117.032;2023-05-24T01:35:18;99217.79;;;23.41;49.79
60646;BME280;46462;32.608;-117.032;2023-05-24T01:37:49;99214.13;;;23.38;49.84
60646;BME280;46462;32.608;-117.032;2023-05-24T01:40:19;99217.67;;;23.39;49.83
60646;BME280;46462;32.608;-117.032;2023-05-24T01:42:58;99218.68;;;23.31;50.06
60646;BME280;46462;32.608;-117.032;2023-05-24T01:45:31;99217.66;;;23.29;50.18
60646;BME280;46462;32.608;-117.032;2023-05-24T01:48:00;99215.32;;;23.29;50.08
60646;BME280;46462;32.608;-117.032;2023-05-24T01:50:27;99210.61;;;23.33;50.02
60646;BME280;46462;32.608;-117.032;2023-05-24T01:52:53;99207.86;;;23.50;49.60
60646;BME280;46462;32.608;-117.032;2023-05-24T01:55:24;99210.96;;;23.30;50.01
60646;BME280;46462;32.608;-117.032;2023-05-24T01:57:59;99210.76;;;23.37;49.85
60646;BME280;46462;32.608;-117.032;2023-05-24T02:00:25;99212.62;;;23.34;49.93
60646;BME280;46462;32.608;-117.032;2023-05-24T02:02:55;99213.27;;;23.33;49.93
60646;BME280;46462;32.608;-117.032;2023-05-24T02:05:25;99212.82;;;23.41;49.73
60646;BME280;46462;32.608;-117.032;2023-05-24T02:07:56;99213.62;;;23.38;49.77
60646;BME280;46462;32.608;-117.032;2023-05-24T02:10:26;99211.09;;;23.42;49.68
60646;BME280;46462;32.608;-117.032;2023-05-24T02:12:57;99213.62;;;23.37;49.72
60646;BME280;46462;32.608;-117.032;2023-05-24T02:15:28;99217.33;;;23.32;49.93
60646;BME280;46462;32.608;-117.032;2023-05-24T02:17:59;99216.85;;;23.31;49.94
60646;BME280;46462;32.608;-117.032;2023-05-24T02:20:30;99221.67;;;23.31;49.96
60646;BME280;46462;32.608;-117.032;2023-05-24T02:23:00;99220.95;;;23.29;50.01
60646;BME280;46462;32.608;-117.032;2023-05-24T02:25:31;99217.76;;;23.24;50.11
60646;BME280;46462;32.608;-117.032;2023-05-24T02:28:01;99215.89;;;23.29;50.01
60646;BME280;46462;32.608;-117.032;2023-05-24T02:30:32;99215.60;;;23.25;50.06
60646;BME280;46462;32.608;-117.032;2023-05-24T02:33:03;99219.28;;;23.26;50.17
60646;BME280;46462;32.608;-117.032;2023-05-24T02:35:34;99216.53;;;23.38;49.85
60646;BME280;46462;32.608;-117.032;2023-05-24T02:38:04;99214.46;;;23.36;49.89
60646;BME280;46462;32.608;-117.032;2023-05-24T02:40:35;99215.92;;;23.36;49.90
60646;BME280;46462;32.608;-117.032;2023-05-24T02:43:06;99214.54;;;23.37;49.85
60646;BME280;46462;32.608;-117.032;2023-05-24T02:45:36;99217.29;;;23.36;49.93
60646;BME280;46462;32.608;-117.032;2023-05-24T02:48:07;99219.80;;;23.33;49.98
60646;BME280;46462;32.608;-117.032;2023-05-24T02:50:38;99222.85;;;23.44;49.71
60646;BME280;46462;32.608;-117.032;2023-05-24T02:53:08;99223.29;;;23.47;49.59
60646;BME280;46462;32.608;-117.032;2023-05-24T02:55:38;99225.34;;;23.44;49.65
60646;BME280;46462;32.608;-117.032;2023-05-24T02:58:09;99224.75;;;23.50;49.43
60646;BME280;46462;32.608;-117.032;2023-05-24T03:00:40;99225.01;;;23.40;49.70
60646;BME280;46462;32.608;-117.032;2023-05-24T03:03:11;99227.21;;;23.36;49.78
60646;BME280;46462;32.608;-117.032;2023-05-24T03:05:41;99229.59;;;23.41;49.62
60646;BME280;46462;32.608;-117.032;2023-05-24T03:08:12;99233.59;;;23.31;49.86
60646;BME280;46462;32.608;-117.032;2023-05-24T03:10:43;99235.35;;;23.30;49.88
60646;BME280;46462;32.608;-117.032;2023-05-24T03:13:14;99233.30;;;23.43;49.51
60646;BME280;46462;32.608;-117.032;2023-05-24T03:15:45;99237.80;;;23.40;49.55
60646;BME280;46462;32.608;-117.032;2023-05-24T03:18:15;99236.78;;;23.39;49.55
60646;BME280;46462;32.608;-117.032;2023-05-24T03:20:46;99239.95;;;23.36;49.63
60646;BME280;46462;32.608;-117.032;2023-05-24T03:23:17;99240.46;;;23.36;49.61
60646;BME280;46462;32.608;-117.032;2023-05-24T03:25:47;99243.52;;;23.30;49.76
60646;BME280;46462;32.608;-117.032;2023-05-24T03:28:18;99245.49;;;23.32;49.74
60646;BME280;46462;32.608;-117.032;2023-05-24T03:30:48;99250.70;;;23.30;49.80
60646;BME280;46462;32.608;-117.032;2023-05-24T03:33:19;99253.65;;;23.27;49.81
60646;BME280;46462;32.608;-117.032;2023-05-24T03:35:50;99255.09;;;23.21;49.96
60646;BME280;46462;32.608;-117.032;2023-05-24T03:38:20;99256.71;;;23.26;49.87
60646;BME280;46462;32.608;-117.032;2023-05-24T03:40:51;99259.58;;;23.16;50.09
60646;BME280;46462;32.608;-117.032;2023-05-24T03:43:21;99258.97;;;23.21;50.00
60646;BME280;46462;32.608;-117.032;2023-05-24T03:45:52;99258.67;;;23.20;50.04
60646;BME280;46462;32.608;-117.032;2023-05-24T03:48:23;99260.38;;;23.16;50.15
60646;BME280;46462;32.608;-117.032;2023-05-24T03:50:53;99262.07;;;23.17;50.14
60646;BME280;46462;32.608;-117.032;2023-05-24T03:53:25;99264.45;;;23.19;50.08
60646;BME280;46462;32.608;-117.032;2023-05-24T03:55:55;99262.92;;;23.13;50.25
60646;BME280;46462;32.608;-117.032;2023-05-24T03:58:26;99261.37;;;23.19;50.05
60646;BME280;46462;32.608;-117.032;2023-05-24T04:00:57;99263.22;;;23.20;50.05
60646;BME280;46462;32.608;-117.032;2023-05-24T04:03:27;99261.03;;;23.20;50.02
60646;BME280;46462;32.608;-117.032;2023-05-24T04:05:58;99260.73;;;23.15;50.17
60646;BME280;46462;32.608;-117.032;2023-05-24T04:08:29;99264.95;;;23.11;50.26
60646;BME280;46462;32.608;-117.032;2023-05-24T04:10:59;99265.49;;;23.14;50.20
60646;BME280;46462;32.608;-117.032;2023-05-24T04:13:30;99268.83;;;23.10;50.25
60646;BME280;46462;32.608;-117.032;2023-05-24T04:16:01;99271.05;;;23.02;50.45
60646;BME280;46462;32.608;-117.032;2023-05-24T04:18:31;99273.56;;;23.03;50.39
60646;BME280;46462;32.608;-117.032;2023-05-24T04:21:02;99276.08;;;22.98;50.54
60646;BME280;46462;32.608;-117.032;2023-05-24T04:23:33;99279.63;;;22.93;50.60
60646;BME280;46462;32.608;-117.032;2023-05-24T04:26:03;99281.05;;;22.96;50.51
60646;BME280;46462;32.608;-117.032;2023-05-24T04:28:34;99285.70;;;23.03;50.35
60646;BME280;46462;32.608;-117.032;2023-05-24T04:31:05;99287.04;;;23.03;50.28
60646;BME280;46462;32.608;-117.032;2023-05-24T04:33:36;99287.80;;;22.98;50.39
60646;BME280;46462;32.608;-117.032;2023-05-24T04:36:07;99287.56;;;23.07;50.21
60646;BME280;46462;32.608;-117.032;2023-05-24T04:38:37;99285.42;;;23.01;50.18
60646;BME280;46462;32.608;-117.032;2023-05-24T04:41:08;99286.56;;;23.05;50.03
60646;BME280;46462;32.608;-117.032;2023-05-24T04:43:38;99289.35;;;23.03;50.03
60646;BME280;46462;32.608;-117.032;2023-05-24T04:46:09;99291.92;;;23.02;50.02
60646;BME280;46462;32.608;-117.032;2023-05-24T04:48:39;99294.16;;;23.07;49.82
60646;BME280;46462;32.608;-117.032;2023-05-24T04:51:10;99291.84;;;23.07;49.82
60646;BME280;46462;32.608;-117.032;2023-05-24T04:53:41;99289.28;;;23.10;49.63
60646;BME280;46462;32.608;-117.032;2023-05-24T04:56:11;99291.48;;;23.14;49.51
60646;BME280;46462;32.608;-117.032;2023-05-24T04:58:42;99287.37;;;23.05;49.75
60646;BME280;46462;32.608;-117.032;2023-05-24T05:01:13;99287.70;;;23.06;49.69
60646;BME280;46462;32.608;-117.032;2023-05-24T05:03:44;99288.06;;;23.00;49.81
60646;BME280;46462;32.608;-117.032;2023-05-24T05:06:14;99284.69;;;22.97;49.89
60646;BME280;46462;32.608;-117.032;2023-05-24T05:08:45;99282.33;;;22.92;49.98
60646;BME280;46462;32.608;-117.032;2023-05-24T05:11:16;99284.76;;;22.93;49.96
60646;BME280;46462;32.608;-117.032;2023-05-24T05:13:47;99287.55;;;22.99;49.81
60646;BME280;46462;32.608;-117.032;2023-05-24T05:16:18;99291.53;;;22.99;49.77
60646;BME280;46462;32.608;-117.032;2023-05-24T05:18:48;99289.80;;;22.98;49.74
60646;BME280;46462;32.608;-117.032;2023-05-24T05:21:19;99287.45;;;22.93;49.88
60646;BME280;46462;32.608;-117.032;2023-05-24T05:23:50;99286.23;;;22.76;50.29
60646;BME280;46462;32.608;-117.032;2023-05-24T05:26:20;99287.58;;;22.80;50.20
60646;BME280;46462;32.608;-117.032;2023-05-24T05:28:51;99285.93;;;22.85;50.05
60646;BME280;46462;32.608;-117.032;2023-05-24T05:31:22;99288.96;;;22.88;49.97
60646;BME280;46462;32.608;-117.032;2023-05-24T05:33:52;99290.68;;;22.93;49.84
60646;BME280;46462;32.608;-117.032;2023-05-24T05:36:23;99289.75;;;22.98;49.71
60646;BME280;46462;32.608;-117.032;2023-05-24T05:38:54;99289.07;;;22.95;49.79
60646;BME280;46462;32.608;-117.032;2023-05-24T05:41:25;99289.09;;;22.96;49.74
60646;BME280;46462;32.608;-117.032;2023-05-24T05:43:55;99289.14;;;22.93;49.83
60646;BME280;46462;32.608;-117.032;2023-05-24T05:46:26;99293.36;;;22.93;49.84
60646;BME280;46462;32.608;-117.032;2023-05-24T05:48:56;99295.18;;;22.94;49.80
60646;BME280;46462;32.608;-117.032;2023-05-24T05:51:27;99292.81;;;22.89;49.92
60646;BME280;46462;32.608;-117.032;2023-05-24T05:53:58;99291.16;;;22.86;50.00
60646;BME280;46462;32.608;-117.032;2023-05-24T05:56:29;99291.93;;;22.93;49.89
60646;BME280;46462;32.608;-117.032;2023-05-24T05:58:59;99289.57;;;22.92;49.89
60646;BME280;46462;32.608;-117.032;2023-05-24T06:01:30;99286.80;;;22.92;49.89
60646;BME280;46462;32.608;-117.032;2023-05-24T06:04:01;99287.32;;;22.91;49.93
60646;BME280;46462;32.608;-117.032;2023-05-24T06:06:31;99284.49;;;22.81;50.15
60646;BME280;46462;32.608;-117.032;2023-05-24T06:09:02;99285.52;;;22.81;50.18
60646;BME280;46462;32.608;-117.032;2023-05-24T06:11:33;99285.13;;;22.73;50.39
60646;BME280;46462;32.608;-117.032;2023-05-24T06:14:03;99287.47;;;22.71;50.47
60646;BME280;46462;32.608;-117.032;2023-05-24T06:16:34;99284.66;;;22.73;50.44
60646;BME280;46462;32.608;-117.032;2023-05-24T06:19:05;99284.19;;;22.71;50.47
60646;BME280;46462;32.608;-117.032;2023-05-24T06:21:35;99285.53;;;22.75;50.41
60646;BME280;46462;32.608;-117.032;2023-05-24T06:24:06;99288.11;;;22.78;50.36
60646;BME280;46462;32.608;-117.032;2023-05-24T06:26:36;99286.44;;;22.80;50.30
60646;BME280;46462;32.608;-117.032;2023-05-24T06:29:07;99286.22;;;22.80;50.30
60646;BME280;46462;32.608;-117.032;2023-05-24T06:31:38;99287.44;;;22.75;50.43
60646;BME280;46462;32.608;-117.032;2023-05-24T06:34:08;99285.74;;;22.75;50.45
60646;BME280;46462;32.608;-117.032;2023-05-24T06:36:39;99283.20;;;22.70;50.59
60646;BME280;46462;32.608;-117.032;2023-05-24T06:39:10;99281.57;;;22.71;50.62
60646;BME280;46462;32.608;-117.032;2023-05-24T06:41:40;99278.28;;;22.71;50.63
60646;BME280;46462;32.608;-117.032;2023-05-24T06:44:11;99277.27;;;22.71;50.61
60646;BME280;46462;32.608;-117.032;2023-05-24T06:46:42;99278.69;;;22.74;50.54
60646;BME280;46462;32.608;-117.032;2023-05-24T06:49:12;99278.91;;;22.71;50.64
60646;BME280;46462;32.608;-117.032;2023-05-24T06:51:43;99278.08;;;22.74;50.61
60646;BME280;46462;32.608;-117.032;2023-05-24T06:54:13;99275.32;;;22.74;50.61
60646;BME280;46462;32.608;-117.032;2023-05-24T06:56:44;99273.59;;;22.75;50.58
60646;BME280;46462;32.608;-117.032;2023-05-24T06:59:15;99272.01;;;22.74;50.58
60646;BME280;46462;32.608;-117.032;2023-05-24T07:01:46;99268.01;;;22.74;50.55
60646;BME280;46462;32.608;-117.032;2023-05-24T07:04:16;99270.28;;;22.78;50.43
60646;BME280;46462;32.608;-117.032;2023-05-24T07:06:47;99267.24;;;22.73;50.62
60646;BME280;46462;32.608;-117.032;2023-05-24T07:09:18;99264.89;;;22.74;50.55
60646;BME280;46462;32.608;-117.032;2023-05-24T07:11:49;99264.08;;;22.73;50.55
60646;BME280;46462;32.608;-117.032;2023-05-24T07:14:19;99262.78;;;22.81;50.38
60646;BME280;46462;32.608;-117.032;2023-05-24T07:16:50;99263.52;;;22.83;50.31
60646;BME280;46462;32.608;-117.032;2023-05-24T07:19:21;99264.38;;;22.79;50.44
60646;BME280;46462;32.608;-117.032;2023-05-24T07:21:52;99262.35;;;22.76;50.52
60646;BME280;46462;32.608;-117.032;2023-05-24T07:24:23;99261.73;;;22.78;50.48
60646;BME280;46462;32.608;-117.032;2023-05-24T07:26:53;99263.49;;;22.79;50.44
60646;BME280;46462;32.608;-117.032;2023-05-24T07:29:24;99259.64;;;22.70;50.70
60646;BME280;46462;32.608;-117.032;2023-05-24T07:31:55;99255.79;;;22.71;50.67
60646;BME280;46462;32.608;-117.032;2023-05-24T07:34:25;99255.35;;;22.70;50.66
60646;BME280;46462;32.608;-117.032;2023-05-24T07:36:56;99252.84;;;22.71;50.63
60646;BME280;46462;32.608;-117.032;2023-05-24T07:39:27;99250.63;;;22.73;50.63
60646;BME280;46462;32.608;-117.032;2023-05-24T07:41:57;99248.65;;;22.74;50.63
60646;BME280;46462;32.608;-117.032;2023-05-24T07:44:28;99246.82;;;22.76;50.55
60646;BME280;46462;32.608;-117.032;2023-05-24T07:46:59;99247.09;;;22.80;50.49
60646;BME280;46462;32.608;-117.032;2023-05-24T07:49:30;99246.92;;;22.74;50.64
60646;BME280;46462;32.608;-117.032;2023-05-24T07:52:01;99244.28;;;22.80;50.45
60646;BME280;46462;32.608;-117.032;2023-05-24T07:54:31;99243.56;;;22.76;50.61
60646;BME280;46462;32.608;-117.032;2023-05-24T07:57:02;99239.77;;;22.79;50.48
60646;BME280;46462;32.608;-117.032;2023-05-24T07:59:33;99240.75;;;22.66;50.82
60646;BME280;46462;32.608;-117.032;2023-05-24T08:02:04;99238.11;;;22.70;50.75
60646;BME280;46462;32.608;-117.032;2023-05-24T08:04:34;99238.17;;;22.69;50.77
60646;BME280;46462;32.608;-117.032;2023-05-24T08:07:05;99239.50;;;22.68;50.83
60646;BME280;46462;32.608;-117.032;2023-05-24T08:09:36;99237.90;;;22.55;51.08
60646;BME280;46462;32.608;-117.032;2023-05-24T08:12:07;99238.17;;;22.59;51.03
60646;BME280;46462;32.608;-117.032;2023-05-24T08:14:37;99237.96;;;22.62;50.89
60646;BME280;46462;32.608;-117.032;2023-05-24T08:17:08;99234.75;;;22.59;50.95
60646;BME280;46462;32.608;-117.032;2023-05-24T08:19:38;99232.73;;;22.49;51.06
60646;BME280;46462;32.608;-117.032;2023-05-24T08:22:08;99229.46;;;22.49;51.20
60646;BME280;46462;32.608;-117.032;2023-05-24T08:24:39;99222.84;;;22.45;51.27
60646;BME280;46462;32.608;-117.032;2023-05-24T08:27:10;99222.89;;;22.49;51.18
60646;BME280;46462;32.608;-117.032;2023-05-24T08:29:40;99220.11;;;22.48;51.12
60646;BME280;46462;32.608;-117.032;2023-05-24T08:32:11;99222.00;;;22.53;51.04
60646;BME280;46462;32.608;-117.032;2023-05-24T08:34:42;99221.33;;;22.59;50.85
60646;BME280;46462;32.608;-117.032;2023-05-24T08:37:13;99222.28;;;22.58;50.87
60646;BME280;46462;32.608;-117.032;2023-05-24T08:39:43;99221.36;;;22.54;51.03
60646;BME280;46462;32.608;-117.032;2023-05-24T08:42:15;99219.87;;;22.48;51.14
60646;BME280;46462;32.608;-117.032;2023-05-24T08:44:47;99217.17;;;22.40;51.39
60646;BME280;46462;32.608;-117.032;2023-05-24T08:47:16;99218.55;;;22.44;51.25
60646;BME280;46462;32.608;-117.032;2023-05-24T08:49:49;99222.60;;;22.45;51.21
60646;BME280;46462;32.608;-117.032;2023-05-24T08:52:17;99222.06;;;22.51;51.07
60646;BME280;46462;32.608;-117.032;2023-05-24T08:54:48;99219.27;;;22.50;51.18
60646;BME280;46462;32.608;-117.032;2023-05-24T08:57:18;99217.05;;;22.60;50.92
60646;BME280;46462;32.608;-117.032;2023-05-24T08:59:49;99216.52;;;22.58;50.97
60646;BME280;46462;32.608;-117.032;2023-05-24T09:02:20;99224.17;;;22.63;50.87
60646;BME280;46462;32.608;-117.032;2023-05-24T09:04:52;99223.10;;;22.58;51.09
60646;BME280;46462;32.608;-117.032;2023-05-24T09:07:22;99221.22;;;22.63;50.95
60646;BME280;46462;32.608;-117.032;2023-05-24T09:09:57;99219.73;;;22.60;51.05
60646;BME280;46462;32.608;-117.032;2023-05-24T09:12:23;99224.62;;;22.59;51.12
60646;BME280;46462;32.608;-117.032;2023-05-24T09:14:53;99229.00;;;22.59;51.12
60646;BME280;46462;32.608;-117.032;2023-05-24T09:17:24;99231.29;;;22.52;51.35
60646;BME280;46462;32.608;-117.032;2023-05-24T09:19:56;99234.27;;;22.52;51.32
60646;BME280;46462;32.608;-117.032;2023-05-24T09:22:27;99232.52;;;22.45;51.52
60646;BME280;46462;32.608;-117.032;2023-05-24T09:24:58;99235.16;;;22.49;51.45
60646;BME280;46462;32.608;-117.032;2023-05-24T09:27:26;99233.79;;;22.43;51.62
60646;BME280;46462;32.608;-117.032;2023-05-24T09:29:57;99234.68;;;22.43;51.60
60646;BME280;46462;32.608;-117.032;2023-05-24T09:32:27;99234.59;;;22.49;51.49
60646;BME280;46462;32.608;-117.032;2023-05-24T09:34:58;99235.58;;;22.41;51.67
60646;BME280;46462;32.608;-117.032;2023-05-24T09:37:28;99238.73;;;22.37;51.73
60646;BME280;46462;32.608;-117.032;2023-05-24T09:39:59;99240.08;;;22.43;51.63
60646;BME280;46462;32.608;-117.032;2023-05-24T09:42:30;99240.96;;;22.49;51.46
60646;BME280;46462;32.608;-117.032;2023-05-24T09:45:01;99241.68;;;22.43;51.60
60646;BME280;46462;32.608;-117.032;2023-05-24T09:47:32;99245.07;;;22.42;51.67
60646;BME280;46462;32.608;-117.032;2023-05-24T09:50:04;99246.15;;;22.37;51.83
60646;BME280;46462;32.608;-117.032;2023-05-24T09:52:36;99244.68;;;22.34;51.97
60646;BME280;46462;32.608;-117.032;2023-05-24T09:55:11;99240.87;;;22.38;51.88
60646;BME280;46462;32.608;-117.032;2023-05-24T09:57:37;99240.35;;;22.39;51.84
60646;BME280;46462;32.608;-117.032;2023-05-24T10:00:08;99241.70;;;22.32;52.02
60646;BME280;46462;32.608;-117.032;2023-05-24T10:02:37;99244.41;;;22.37;51.85
60646;BME280;46462;32.608;-117.032;2023-05-24T10:05:10;99243.92;;;22.35;51.90
60646;BME280;46462;32.608;-117.032;2023-05-24T10:07:39;99241.49;;;22.40;51.74
60646;BME280;46462;32.608;-117.032;2023-05-24T10:10:10;99239.30;;;22.40;51.77
60646;BME280;46462;32.608;-117.032;2023-05-24T10:12:40;99241.06;;;22.34;51.88
60646;BME280;46462;32.608;-117.032;2023-05-24T10:15:11;99242.72;;;22.33;51.91
60646;BME280;46462;32.608;-117.032;2023-05-24T10:17:41;99241.79;;;22.26;52.03
60646;BME280;46462;32.608;-117.032;2023-05-24T10:20:12;99240.70;;;22.18;52.25
60646;BME280;46462;32.608;-117.032;2023-05-24T10:22:45;99235.58;;;22.21;52.20
60646;BME280;46462;32.608;-117.032;2023-05-24T10:25:16;99239.63;;;22.17;52.27
60646;BME280;46462;32.608;-117.032;2023-05-24T10:27:45;99239.91;;;22.13;52.37
60646;BME280;46462;32.608;-117.032;2023-05-24T10:30:21;99239.15;;;22.11;52.35
60646;BME280;46462;32.608;-117.032;2023-05-24T10:32:46;99241.88;;;22.13;52.25
60646;BME280;46462;32.608;-117.032;2023-05-24T10:35:17;99239.16;;;22.20;51.97
60646;BME280;46462;32.608;-117.032;2023-05-24T10:37:47;99235.98;;;22.24;51.76
60646;BME280;46462;32.608;-117.032;2023-05-24T10:40:18;99237.65;;;22.21;51.82
60646;BME280;46462;32.608;-117.032;2023-05-24T10:42:48;99236.69;;;22.27;51.57
60646;BME280;46462;32.608;-117.032;2023-05-24T10:47:50;99234.53;;;22.23;51.60
60646;BME280;46462;32.608;-117.032;2023-05-24T10:50:22;99234.62;;;22.31;51.45
60646;BME280;46462;32.608;-117.032;2023-05-24T10:55:22;99233.04;;;22.31;51.42
60646;BME280;46462;32.608;-117.032;2023-05-24T10:57:55;99233.99;;;22.36;51.26
60646;BME280;46462;32.608;-117.032;2023-05-24T11:00:27;99230.93;;;22.29;51.35
60646;BME280;46462;32.608;-117.032;2023-05-24T11:03:00;99225.47;;;22.28;51.31
60646;BME280;46462;32.608;-117.032;2023-05-24T11:05:25;99226.31;;;22.39;51.01
60646;BME280;46462;32.608;-117.032;2023-05-24T11:07:59;99223.70;;;22.34;51.07
60646;BME280;46462;32.608;-117.032;2023-05-24T11:10:30;99224.43;;;22.35;51.09
60646;BME280;46462;32.608;-117.032;2023-05-24T11:12:59;99226.71;;;22.40;50.89
60646;BME280;46462;32.608;-117.032;2023-05-24T11:15:28;99225.07;;;22.41;50.93
60646;BME280;46462;32.608;-117.032;2023-05-24T11:20:29;99221.25;;;22.41;51.01
60646;BME280;46462;32.608;-117.032;2023-05-24T11:23:02;99219.48;;;22.39;51.13
60646;BME280;46462;32.608;-117.032;2023-05-24T11:25:32;99223.53;;;22.45;50.94
60646;BME280;46462;32.608;-117.032;2023-05-24T11:28:02;99222.22;;;22.45;50.93
60646;BME280;46462;32.608;-117.032;2023-05-24T11:30:32;99223.22;;;22.44;50.98
60646;BME280;46462;32.608;-117.032;2023-05-24T11:33:03;99224.61;;;22.43;51.04
60646;BME280;46462;32.608;-117.032;2023-05-24T11:35:33;99222.95;;;22.30;51.47
60646;BME280;46462;32.608;-117.032;2023-05-24T11:38:08;99226.09;;;22.35;51.38
60646;BME280;46462;32.608;-117.032;2023-05-24T11:40:34;99223.90;;;22.27;51.60
60646;BME280;46462;32.608;-117.032;2023-05-24T11:43:06;99225.41;;;22.33;51.47
60646;BME280;46462;32.608;-117.032;2023-05-24T11:45:36;99224.16;;;22.29;51.60
60646;BME280;46462;32.608;-117.032;2023-05-24T11:48:07;99226.52;;;22.33;51.49
60646;BME280;46462;32.608;-117.032;2023-05-24T11:50:39;99227.85;;;22.27;51.63
60646;BME280;46462;32.608;-117.032;2023-05-24T11:53:10;99225.98;;;22.25;51.68
60646;BME280;46462;32.608;-117.032;2023-05-24T11:55:40;99226.52;;;22.36;51.55
60646;BME280;46462;32.608;-117.032;2023-05-24T11:58:17;99228.76;;;22.35;51.52
60646;BME280;46462;32.608;-117.032;2023-05-24T12:00:42;99225.66;;;22.35;51.49
60646;BME280;46462;32.608;-117.032;2023-05-24T12:03:11;99225.41;;;22.26;51.71
60646;BME280;46462;32.608;-117.032;2023-05-24T12:05:42;99227.58;;;22.29;51.70
60646;BME280;46462;32.608;-117.032;2023-05-24T12:08:13;99226.02;;;22.31;51.64
60646;BME280;46462;32.608;-117.032;2023-05-24T12:10:44;99227.58;;;22.31;51.66
60646;BME280;46462;32.608;-117.032;2023-05-24T12:13:19;99227.00;;;22.24;51.83
60646;BME280;46462;32.608;-117.032;2023-05-24T12:15:45;99228.05;;;22.22;51.87
60646;BME280;46462;32.608;-117.032;2023-05-24T12:18:18;99231.56;;;22.16;52.01
60646;BME280;46462;32.608;-117.032;2023-05-24T12:20:46;99230.08;;;22.05;52.26
60646;BME280;46462;32.608;-117.032;2023-05-24T12:23:18;99232.79;;;22.06;52.24
60646;BME280;46462;32.608;-117.032;2023-05-24T12:25:47;99236.55;;;22.02;52.29
60646;BME280;46462;32.608;-117.032;2023-05-24T12:28:20;99237.54;;;22.04;52.23
60646;BME280;46462;32.608;-117.032;2023-05-24T12:30:49;99240.81;;;22.06;52.13
60646;BME280;46462;32.608;-117.032;2023-05-24T12:33:19;99241.45;;;21.99;52.24
60646;BME280;46462;32.608;-117.032;2023-05-24T12:35:50;99242.46;;;22.03;52.20
60646;BME280;46462;32.608;-117.032;2023-05-24T12:38:22;99246.32;;;22.03;52.14
60646;BME280;46462;32.608;-117.032;2023-05-24T12:40:52;99247.73;;;22.06;52.10
60646;BME280;46462;32.608;-117.032;2023-05-24T12:43:23;99247.25;;;22.11;52.01
60646;BME280;46462;32.608;-117.032;2023-05-24T12:45:53;99247.15;;;22.04;52.21
60646;BME280;46462;32.608;-117.032;2023-05-24T12:48:24;99251.11;;;22.07;52.13
60646;BME280;46462;32.608;-117.032;2023-05-24T12:50:54;99253.11;;;22.08;52.06
60646;BME280;46462;32.608;-117.032;2023-05-24T12:53:26;99253.62;;;22.11;52.02
60646;BME280;46462;32.608;-117.032;2023-05-24T12:55:56;99256.72;;;22.12;52.00
60646;BME280;46462;32.608;-117.032;2023-05-24T12:58:27;99257.06;;;22.20;51.82